History for KNYNEWYO395

Chelsea, West 28th St., New York, NY — Current Conditions
Daily Summary for June 28, 2017
  Current: High: Low: Average:
Temperature: 62.2°F 68.9°F 62.1°F 65.5°F
Dew Point: 47.3°F 50.4°F 46.4°F 48.1°F
Humidity: 58% 60% 48% 55%
Wind Speed: 0.0mph 0.4mph - 0.0mph
Wind Gust: 0.0mph 2.5mph - -
Wind: ESE - - NNW
Pressure: 30.11in 30.11in 30.03in -
Precipitation: 0.00in      
Solar Radiation: 11 watts/m^2      
UV Index: 0.0      
Statistics for the rest of the month
    High: Low: Average:
Temperature:   98.1°F 51.8°F 73.5°F
Dew Point:   80.6°F 19.6°F 53.1°F
Humidity:   98.0% 13.0% 54.4%
Wind Speed:   13.6mph from the WNW - 0.2mph
Wind Gust:   15.0mph from the WNW - -
Wind:   - - SW
Pressure:   30.11in 29.60in -
Precipitation:   5.21in    
KNYNEWYO395 Weather Graph
Tabular Data for June 28, 2017
Time Temp. Dew Point Pressure Wind Gust Humidity Rainfall Solar Radiation
00:04 68.9°F 49.5°F 30.04in 0.0mph 50% 0.00in 0.00 watts/m^2
00:09 68.7°F 48.2°F 30.04in 0.0mph 48% 0.00in 0.00 watts/m^2
00:14 68.7°F 48.9°F 30.04in 0.0mph 49% 0.00in 0.00 watts/m^2
00:19 68.5°F 48.7°F 30.04in 0.0mph 49% 0.00in 0.00 watts/m^2
00:24 68.5°F 49.8°F 30.04in 0.0mph 51% 0.00in 0.00 watts/m^2
00:29 68.5°F 49.3°F 30.04in 0.0mph 50% 0.00in 0.00 watts/m^2
00:34 68.4°F 49.6°F 30.04in 0.0mph 51% 0.00in 0.00 watts/m^2
00:39 68.4°F 49.1°F 30.04in 0.0mph 50% 0.00in 0.00 watts/m^2
00:44 68.2°F 48.9°F 30.04in 0.0mph 50% 0.00in 0.00 watts/m^2
00:49 68.2°F 49.5°F 30.04in 0.0mph 51% 0.00in 0.00 watts/m^2
00:54 68.0°F 49.3°F 30.04in 0.0mph 51% 0.00in 0.00 watts/m^2
00:59 68.0°F 49.3°F 30.04in 0.0mph 51% 0.00in 0.00 watts/m^2
01:05 67.8°F 50.2°F 30.04in 0.0mph 53% 0.00in 0.00 watts/m^2
01:10 67.6°F 49.5°F 30.04in 0.0mph 52% 0.00in 0.00 watts/m^2
01:15 67.6°F 49.5°F 30.05in 0.0mph 52% 0.00in 0.00 watts/m^2
01:20 67.6°F 50.4°F 30.05in 0.0mph 54% 0.00in 0.00 watts/m^2
01:25 67.5°F 49.8°F 30.04in 0.0mph 53% 0.00in 0.00 watts/m^2
01:30 67.5°F 49.8°F 30.04in 0.0mph 53% 0.00in 0.00 watts/m^2
01:35 67.3°F 48.6°F 30.04in 0.0mph 51% 0.00in 0.00 watts/m^2
01:40 67.3°F 48.6°F 30.04in 0.0mph 51% 0.00in 0.00 watts/m^2
01:45 67.1°F 48.9°F 30.05in 0.0mph 52% 0.00in 0.00 watts/m^2
01:50 66.9°F 48.7°F 30.05in 0.0mph 52% 0.00in 0.00 watts/m^2
01:55 66.7°F 49.1°F 30.05in 0.0mph 53% 0.00in 0.00 watts/m^2
02:00 66.6°F 48.9°F 30.05in 0.0mph 53% 0.00in 0.00 watts/m^2
02:05 66.4°F 48.7°F 30.05in 0.0mph 53% 0.00in 0.00 watts/m^2
02:11 66.2°F 48.0°F 30.05in 0.0mph 52% 0.00in 0.00 watts/m^2
02:16 66.0°F 49.5°F 30.05in 0.0mph 55% 0.00in 0.00 watts/m^2
02:21 66.0°F 48.9°F 30.05in 0.0mph 54% 0.00in 0.00 watts/m^2
02:26 66.0°F 50.0°F 30.06in 0.0mph 56% 0.00in 0.00 watts/m^2
02:31 66.0°F 48.9°F 30.05in 0.0mph 54% 0.00in 0.00 watts/m^2
02:36 65.8°F 48.2°F 30.06in 0.0mph 53% 0.00in 0.00 watts/m^2
02:41 65.7°F 49.6°F 30.05in 0.0mph 56% 0.00in 0.00 watts/m^2
02:46 65.5°F 48.9°F 30.06in 0.0mph 55% 0.00in 0.00 watts/m^2
02:51 65.1°F 48.6°F 30.06in 0.0mph 55% 0.00in 0.00 watts/m^2
02:56 64.9°F 48.4°F 30.06in 0.0mph 55% 0.00in 0.00 watts/m^2
03:01 64.6°F 48.6°F 30.06in 0.0mph 56% 0.00in 0.00 watts/m^2
03:06 64.4°F 47.8°F 30.06in 0.0mph 55% 0.00in 0.00 watts/m^2
03:12 64.2°F 47.8°F 30.06in 0.0mph 55% 0.00in 0.00 watts/m^2
03:17 64.0°F 47.1°F 30.06in 0.0mph 54% 0.00in 0.00 watts/m^2
03:22 63.9°F 47.5°F 30.07in 0.0mph 55% 0.00in 0.00 watts/m^2
03:27 63.7°F 47.3°F 30.07in 0.0mph 55% 0.00in 0.00 watts/m^2
03:32 63.7°F 47.3°F 30.06in 0.0mph 55% 0.00in 0.00 watts/m^2
03:37 63.5°F 47.1°F 30.07in 0.0mph 55% 0.00in 0.00 watts/m^2
03:42 63.5°F 47.1°F 30.06in 0.0mph 55% 0.00in 0.00 watts/m^2
03:47 63.5°F 47.1°F 30.06in 0.0mph 55% 0.00in 0.00 watts/m^2
03:52 63.3°F 47.5°F 30.07in 0.0mph 56% 0.00in 0.00 watts/m^2
03:57 63.3°F 47.5°F 30.06in 0.0mph 56% 0.00in 0.00 watts/m^2
04:00 63.3°F 47.5°F 30.07in 2.5mph 56% 0.00in 0.00 watts/m^2
04:06 63.3°F 47.5°F 30.07in 0.0mph 56% 0.00in 0.00 watts/m^2
04:11 63.1°F 47.3°F 30.07in 0.0mph 56% 0.00in 0.00 watts/m^2
04:16 63.1°F 47.3°F 30.07in 0.0mph 56% 0.00in 0.00 watts/m^2
04:21 63.0°F 47.5°F 30.07in 0.0mph 57% 0.00in 0.00 watts/m^2
04:22 63.0°F 47.5°F 30.08in 0.0mph 57% 0.00in 0.00 watts/m^2
04:27 63.0°F 47.5°F 30.08in 0.0mph 57% 0.00in 0.00 watts/m^2
04:30 63.0°F 47.5°F 30.08in 0.0mph 57% 0.00in 0.00 watts/m^2
04:36 62.8°F 46.9°F 30.08in 0.0mph 56% 0.00in 0.00 watts/m^2
04:41 62.8°F 47.3°F 30.08in 0.0mph 57% 0.00in 0.00 watts/m^2
04:46 62.6°F 47.1°F 30.08in 0.0mph 57% 0.00in 0.00 watts/m^2
04:51 62.6°F 46.8°F 30.08in 0.0mph 56% 0.00in 0.00 watts/m^2
04:56 62.6°F 46.8°F 30.09in 0.0mph 56% 0.00in 0.00 watts/m^2
05:01 62.4°F 46.6°F 30.09in 0.0mph 56% 0.00in 0.00 watts/m^2
05:06 62.4°F 46.6°F 30.09in 0.0mph 56% 0.00in 0.00 watts/m^2
05:11 62.4°F 47.5°F 30.09in 0.0mph 58% 0.00in 0.00 watts/m^2
05:16 62.2°F 47.3°F 30.09in 0.0mph 58% 0.00in 0.00 watts/m^2
05:21 62.2°F 46.9°F 30.09in 0.0mph 57% 0.00in 0.00 watts/m^2
05:26 62.2°F 46.9°F 30.09in 0.0mph 57% 0.00in 0.00 watts/m^2
05:32 62.2°F 47.3°F 30.09in 0.0mph 58% 0.00in 0.00 watts/m^2
05:37 62.2°F 47.3°F 30.10in 0.0mph 58% 0.00in 0.00 watts/m^2
05:42 62.2°F 47.3°F 30.10in 0.0mph 58% 0.00in 0.00 watts/m^2
05:47 62.2°F 47.8°F 30.10in 0.0mph 59% 0.00in 0.00 watts/m^2
05:52 62.2°F 47.8°F 30.09in 0.0mph 59% 0.00in 0.45 watts/m^2
05:57 62.1°F 48.0°F 30.10in 0.0mph 60% 0.00in 1.51 watts/m^2
06:02 62.1°F 47.7°F 30.10in 0.0mph 59% 0.00in 2.43 watts/m^2
06:07 62.1°F 47.1°F 30.10in 0.0mph 58% 0.00in 3.49 watts/m^2
06:12 62.1°F 47.1°F 30.11in 0.0mph 58% 0.00in 4.40 watts/m^2
06:17 62.1°F 47.7°F 30.10in 0.0mph 59% 0.00in 4.71 watts/m^2
06:22 62.1°F 47.1°F 30.11in 0.0mph 58% 0.00in 5.53 watts/m^2
06:27 62.1°F 47.1°F 30.11in 0.0mph 58% 0.00in 6.28 watts/m^2
06:32 62.1°F 47.7°F 30.11in 0.0mph 59% 0.00in 7.72 watts/m^2
06:38 62.1°F 47.1°F 30.11in 0.0mph 58% 0.00in 9.29 watts/m^2
06:43 62.2°F 47.3°F 30.11in 0.0mph 58% 0.00in 10.87 watts/m^2
Comma Delimited File
Powered by Weather Underground, Inc.